createdAt,value
2022-12-18T00:00:43.814Z,98856.09
2022-12-18T00:05:50.474Z,98802.19
2022-12-18T00:10:52.708Z,98802.66
2022-12-18T00:15:56.668Z,98733.50
2022-12-18T00:21:03.959Z,98783.31
2022-12-18T00:26:08.908Z,98795.06
2022-12-18T00:31:13.625Z,98842.16
2022-12-18T00:36:24.603Z,98831.16
2022-12-18T00:41:47.029Z,98502.97
2022-12-18T00:46:49.797Z,98731.25
2022-12-18T00:51:52.400Z,98737.66
2022-12-18T00:56:56.380Z,98632.97
2022-12-18T01:01:58.688Z,98753.75
2022-12-18T01:07:01.183Z,98744.19
2022-12-18T01:12:03.427Z,98746.22
2022-12-18T01:17:06.195Z,98722.94
2022-12-18T01:22:09.044Z,98677.63
2022-12-18T01:27:11.353Z,98720.84
2022-12-18T01:32:13.917Z,98732.38
2022-12-18T01:37:17.197Z,98704.22
2022-12-18T01:42:19.595Z,98762.31
2022-12-18T01:47:43.108Z,98760.94
2022-12-18T01:52:53.295Z,98766.84
2022-12-18T01:57:57.377Z,98730.81
2022-12-18T02:02:59.797Z,98738.50
2022-12-18T02:08:13.739Z,98777.78
2022-12-18T02:13:28.133Z,98731.25
2022-12-18T02:18:57.284Z,98726.66
2022-12-18T02:24:24.423Z,98777.69
2022-12-18T02:29:43.088Z,98710.28
2022-12-18T02:34:45.797Z,98740.84
2022-12-18T02:39:52.826Z,98758.50
2022-12-18T02:44:56.251Z,98744.66
2022-12-18T02:50:31.781Z,98770.47
2022-12-18T02:55:38.387Z,98788.06
2022-12-18T03:00:55.124Z,98735.44
2022-12-18T03:06:06.240Z,98762.59
2022-12-18T03:11:12.108Z,98702.38
2022-12-18T03:16:25.634Z,98733.34
2022-12-18T03:21:33.510Z,98741.09
2022-12-18T03:26:36.654Z,98756.75
2022-12-18T03:31:41.712Z,98744.66
2022-12-18T03:36:44.198Z,98689.94
2022-12-18T03:41:50.503Z,98761.63
2022-12-18T03:47:24.287Z,98708.25
2022-12-18T03:52:38.812Z,98730.50
2022-12-18T03:57:43.848Z,98687.88
2022-12-18T04:02:51.056Z,98779.22
2022-12-18T04:07:58.915Z,98742.97
2022-12-18T04:13:01.421Z,98767.22
2022-12-18T04:18:05.017Z,98707.53
2022-12-18T04:23:14.853Z,98730.38
2022-12-18T04:28:17.488Z,98685.91
2022-12-18T04:33:20.054Z,98805.44
2022-12-18T04:38:22.456Z,98786.47
2022-12-18T04:43:34.085Z,98807.19
2022-12-18T04:48:38.535Z,98779.31
2022-12-18T04:53:41.159Z,98784.38
2022-12-18T04:58:45.362Z,98676.06
2022-12-18T05:03:47.936Z,98724.66
2022-12-18T05:08:50.293Z,98723.56
2022-12-18T05:13:52.529Z,98785.66
2022-12-18T05:18:54.908Z,98790.88
2022-12-18T05:23:57.135Z,98796.44
2022-12-18T05:28:59.376Z,98815.50
2022-12-18T05:34:01.597Z,98763.53
2022-12-18T05:39:04.121Z,98868.06
2022-12-18T05:44:06.658Z,98784.16
2022-12-18T05:49:08.938Z,98807.28
2022-12-18T05:54:11.248Z,98855.72
2022-12-18T05:59:13.473Z,98881.09
2022-12-18T06:04:15.983Z,98877.81
2022-12-18T06:09:18.224Z,98878.88
2022-12-18T06:14:20.435Z,98868.28
2022-12-18T06:19:22.747Z,98943.03
2022-12-18T06:24:24.969Z,98882.84
2022-12-18T06:29:27.222Z,98885.59
2022-12-18T06:34:32.147Z,98946.66
2022-12-18T06:39:34.396Z,98920.44
2022-12-18T06:44:37.098Z,98965.91
2022-12-18T06:49:39.551Z,98857.75
2022-12-18T06:54:41.758Z,99002.84
2022-12-18T06:59:44.006Z,98978.56
2022-12-18T07:04:46.195Z,98885.06
2022-12-18T07:09:50.502Z,99014.81
2022-12-18T07:14:52.688Z,99014.19
2022-12-18T07:19:54.874Z,99011.09
2022-12-18T07:24:57.140Z,98991.38
2022-12-18T07:29:59.403Z,98981.97
2022-12-18T07:35:01.590Z,99067.06
2022-12-18T07:40:06.130Z,99062.22
2022-12-18T07:45:08.669Z,99077.34
2022-12-18T07:50:11.081Z,99040.72
2022-12-18T07:55:13.349Z,99031.66
2022-12-18T08:00:16.010Z,99077.31
2022-12-18T08:05:18.593Z,99034.06
2022-12-18T08:10:21.505Z,99051.88
2022-12-18T08:15:23.931Z,99115.03
2022-12-18T08:20:28.017Z,99113.53
2022-12-18T08:25:30.233Z,99080.97
2022-12-18T08:30:32.575Z,99076.19
2022-12-18T08:35:44.078Z,99136.53
2022-12-18T08:40:48.038Z,99169.25
2022-12-18T08:45:50.380Z,99100.00
2022-12-18T08:50:59.898Z,99119.47
2022-12-18T08:56:02.029Z,99167.56
2022-12-18T09:01:06.161Z,99089.69
2022-12-18T09:06:08.891Z,99186.84
2022-12-18T09:11:16.816Z,99118.25
2022-12-18T09:16:19.538Z,99167.22
2022-12-18T09:21:22.428Z,99154.75
2022-12-18T09:26:25.474Z,99204.06
2022-12-18T09:31:27.722Z,99158.94
2022-12-18T09:36:29.960Z,99135.13
2022-12-18T09:41:56.967Z,99183.75
2022-12-18T09:47:20.202Z,99254.63
2022-12-18T09:52:57.203Z,99200.44
2022-12-18T09:58:06.337Z,99163.06
2022-12-18T10:03:14.823Z,99240.97
2022-12-18T10:08:26.244Z,99276.09
2022-12-18T10:13:43.565Z,99290.44
2022-12-18T10:18:45.783Z,99292.19
2022-12-18T10:24:03.760Z,99292.91
2022-12-18T10:29:12.732Z,99282.78
2022-12-18T10:34:16.116Z,99138.09
2022-12-18T10:39:24.586Z,99290.34
2022-12-18T10:44:29.572Z,99277.19
2022-12-18T10:49:33.992Z,99251.09
2022-12-18T10:54:36.676Z,99308.53
2022-12-18T10:59:55.973Z,99218.78
2022-12-18T11:04:58.197Z,99311.59
2022-12-18T11:10:04.715Z,99201.16
2022-12-18T11:15:07.832Z,99317.97
2022-12-18T11:20:27.842Z,99333.88
2022-12-18T11:25:32.572Z,99279.25
2022-12-18T11:30:37.952Z,99304.59
2022-12-18T11:35:53.269Z,99355.34
2022-12-18T11:41:05.349Z,99316.41
2022-12-18T11:46:17.671Z,99372.03
2022-12-18T11:51:31.668Z,99342.97
2022-12-18T11:56:38.015Z,99389.19
2022-12-18T12:02:18.852Z,99390.78
2022-12-18T12:07:59.128Z,99392.88
2022-12-18T12:13:04.363Z,99426.38
2022-12-18T12:18:15.945Z,99389.88
2022-12-18T12:23:27.863Z,99448.53
2022-12-18T12:28:36.293Z,99458.75
2022-12-18T12:33:54.810Z,99397.16
2022-12-18T12:38:59.686Z,99402.84
2022-12-18T12:44:05.832Z,99431.44
2022-12-18T12:49:16.480Z,99471.53
2022-12-18T12:54:25.065Z,99479.28
2022-12-18T12:59:52.584Z,99521.50
2022-12-18T13:05:01.798Z,99485.25
2022-12-18T13:10:19.178Z,99551.41
2022-12-18T13:15:44.489Z,99468.81
2022-12-18T13:21:04.121Z,99556.66
2022-12-18T13:26:12.167Z,99577.44
2022-12-18T13:31:16.252Z,99543.53
2022-12-18T13:36:27.359Z,99603.63
2022-12-18T13:41:30.438Z,99558.91
2022-12-18T13:46:32.717Z,99623.94
2022-12-18T13:51:37.600Z,99623.38
2022-12-18T13:56:45.306Z,99558.94
2022-12-18T14:01:54.815Z,99584.50
2022-12-18T14:07:15.126Z,99617.75
2022-12-18T14:12:46.697Z,99675.44
2022-12-18T14:17:52.456Z,99618.81
2022-12-18T14:22:55.792Z,99703.38
2022-12-18T14:28:16.697Z,99699.84
2022-12-18T14:33:25.757Z,99712.38
2022-12-18T14:38:36.125Z,99723.47
2022-12-18T14:43:41.598Z,99595.53
2022-12-18T14:48:44.670Z,99701.31
2022-12-18T14:53:55.817Z,99709.88
2022-12-18T14:59:04.625Z,99751.56
2022-12-18T15:04:26.647Z,99775.50
2022-12-18T15:09:29.063Z,99739.78
2022-12-18T15:14:33.015Z,99783.22
2022-12-18T15:19:40.597Z,99793.28
2022-12-18T15:24:44.110Z,99777.59
2022-12-18T15:30:17.406Z,99764.72
2022-12-18T15:35:21.656Z,99817.81
2022-12-18T15:40:25.480Z,99763.25
2022-12-18T15:45:28.075Z,99810.72
2022-12-18T15:50:30.475Z,99791.91
2022-12-18T15:55:54.235Z,99801.03
2022-12-18T16:01:00.159Z,99826.56
2022-12-18T16:06:04.165Z,99772.34
2022-12-18T16:11:07.210Z,99817.91
2022-12-18T16:16:09.999Z,99845.13
2022-12-18T16:21:12.495Z,99881.75
2022-12-18T16:26:14.810Z,99822.50
2022-12-18T16:31:17.169Z,99875.59
2022-12-18T16:36:19.496Z,99895.94
2022-12-18T16:41:34.061Z,99818.69
2022-12-18T16:46:39.442Z,99906.53
2022-12-18T16:51:42.485Z,99872.31
2022-12-18T16:56:45.565Z,99903.53
2022-12-18T17:01:48.585Z,99969.97
2022-12-18T17:06:54.282Z,99882.47
2022-12-18T17:12:04.035Z,99849.31
2022-12-18T17:17:20.824Z,99954.53
2022-12-18T17:22:24.041Z,99965.63
2022-12-18T17:27:26.352Z,99959.72
2022-12-18T17:32:32.336Z,99968.81
2022-12-18T17:37:34.634Z,99994.03
2022-12-18T17:42:37.231Z,99928.28
2022-12-18T17:47:41.992Z,100019.84
2022-12-18T17:52:44.673Z,99955.84
2022-12-18T17:57:47.007Z,100047.69
2022-12-18T18:02:49.548Z,99983.41
2022-12-18T18:07:52.218Z,100040.00
2022-12-18T18:13:18.141Z,100066.38
2022-12-18T18:18:22.864Z,100097.91
2022-12-18T18:23:29.055Z,99875.81
2022-12-18T18:28:31.394Z,100077.09
2022-12-18T18:33:34.244Z,100054.66
2022-12-18T18:38:43.056Z,100057.16
2022-12-18T18:43:50.041Z,100087.97
2022-12-18T18:48:52.563Z,100044.44
2022-12-18T18:53:56.168Z,100134.97
2022-12-18T18:58:58.838Z,100144.06
2022-12-18T19:04:04.271Z,100114.31
2022-12-18T19:09:06.956Z,100087.00
2022-12-18T19:14:11.430Z,100188.97
2022-12-18T19:19:14.363Z,100183.34
2022-12-18T19:24:16.913Z,100180.50
2022-12-18T19:29:19.211Z,100135.53
2022-12-18T19:34:21.711Z,100156.63
2022-12-18T19:39:24.112Z,100138.69
2022-12-18T19:44:27.759Z,100150.06
2022-12-18T19:49:30.950Z,100046.94
2022-12-18T19:54:33.219Z,100099.25
2022-12-18T19:59:36.144Z,100168.88
2022-12-18T20:04:39.585Z,100246.72
2022-12-18T20:09:41.916Z,100234.16
2022-12-18T20:14:44.732Z,100207.78
2022-12-18T20:19:49.617Z,100200.94
2022-12-18T20:24:51.948Z,100244.50
2022-12-18T20:29:54.189Z,100205.31
2022-12-18T20:34:58.872Z,100140.53
2022-12-18T20:40:01.121Z,100208.22
2022-12-18T20:45:06.513Z,100146.84
2022-12-18T20:50:09.004Z,100225.28
2022-12-18T20:55:11.294Z,100253.38
2022-12-18T21:00:14.094Z,100257.56
2022-12-18T21:05:21.219Z,100259.31
2022-12-18T21:10:23.442Z,100198.19
2022-12-18T21:15:28.796Z,100227.16
2022-12-18T21:20:31.335Z,100225.78
2022-12-18T21:25:33.746Z,100183.09
2022-12-18T21:30:36.020Z,100206.75
2022-12-18T21:35:38.288Z,100249.81
2022-12-18T21:40:43.292Z,100224.44
2022-12-18T21:45:45.681Z,100260.47
2022-12-18T21:50:47.929Z,100247.81
2022-12-18T21:56:00.574Z,100198.84
2022-12-18T22:01:03.129Z,100329.81
2022-12-18T22:06:09.435Z,100221.28
2022-12-18T22:11:12.928Z,100261.06
2022-12-18T22:16:27.621Z,100268.50
2022-12-18T22:21:32.211Z,100341.38
2022-12-18T22:26:39.881Z,100304.03
2022-12-18T22:31:42.854Z,100257.91
2022-12-18T22:36:47.245Z,100352.25
2022-12-18T22:41:49.995Z,100347.06
2022-12-18T22:47:00.802Z,100243.22
2022-12-18T22:52:09.789Z,100280.66
2022-12-18T22:57:12.161Z,100341.59
2022-12-18T23:02:14.590Z,100308.63
2022-12-18T23:07:17.436Z,100357.38
2022-12-18T23:12:19.895Z,100386.66
2022-12-18T23:17:22.215Z,100386.53
2022-12-18T23:22:24.562Z,100350.97
2022-12-18T23:27:26.858Z,100363.50
2022-12-18T23:32:29.041Z,100345.09
2022-12-18T23:37:57.634Z,100388.03
2022-12-18T23:42:53.420Z,100363.19
2022-12-18T23:47:55.649Z,100349.53
2022-12-18T23:53:03.248Z,100200.28
2022-12-18T23:58:09.310Z,100258.09
